createdAt,value
2019-03-21T00:00:22.972Z,11.12
2019-03-21T00:01:05.537Z,9.98
2019-03-21T00:01:45.696Z,11.95
2019-03-21T00:02:25.556Z,10.93
2019-03-21T00:03:04.686Z,12.15
2019-03-21T00:03:43.814Z,12.55
2019-03-21T00:04:22.937Z,11.30
2019-03-21T00:05:03.003Z,18.82
2019-03-21T00:05:42.243Z,11.75
2019-03-21T00:06:21.397Z,16.93
2019-03-21T00:07:01.013Z,13.75
2019-03-21T00:07:40.048Z,12.00
2019-03-21T00:08:19.070Z,11.87
2019-03-21T00:08:58.153Z,11.18
2019-03-21T00:09:37.974Z,10.80
2019-03-21T00:10:25.306Z,11.85
2019-03-21T00:11:51.232Z,13.45
2019-03-21T00:12:30.275Z,20.57
2019-03-21T00:13:09.814Z,12.40
2019-03-21T00:13:49.253Z,16.87
2019-03-21T00:14:53.669Z,11.53
2019-03-21T00:15:36.927Z,11.75
2019-03-21T00:16:17.147Z,11.70
2019-03-21T00:16:56.188Z,13.45
2019-03-21T00:17:38.860Z,11.15
2019-03-21T00:18:18.688Z,11.50
2019-03-21T00:18:58.294Z,15.15
2019-03-21T00:19:37.358Z,13.00
2019-03-21T00:20:18.943Z,12.37
2019-03-21T00:20:58.914Z,12.10
2019-03-21T00:21:38.399Z,14.47
2019-03-21T00:22:17.973Z,14.73
2019-03-21T00:22:57.839Z,18.85
2019-03-21T00:23:37.060Z,17.57
2019-03-21T00:24:17.112Z,13.43
2019-03-21T00:24:56.271Z,13.68
2019-03-21T00:25:35.477Z,11.85
2019-03-21T00:26:14.780Z,12.73
2019-03-21T00:26:53.860Z,13.45
2019-03-21T00:27:33.120Z,13.03
2019-03-21T00:28:12.832Z,11.30
2019-03-21T00:28:52.994Z,13.37
2019-03-21T00:29:32.177Z,13.30
2019-03-21T00:30:15.601Z,12.30
2019-03-21T00:30:55.136Z,14.73
2019-03-21T00:31:36.396Z,12.35
2019-03-21T00:32:15.512Z,11.20
2019-03-21T00:32:54.956Z,13.75
2019-03-21T00:33:34.897Z,11.97
2019-03-21T00:34:14.148Z,15.25
2019-03-21T00:34:53.733Z,11.78
2019-03-21T00:35:33.861Z,11.97
2019-03-21T00:36:13.410Z,12.55
2019-03-21T00:36:53.074Z,12.35
2019-03-21T00:37:32.569Z,11.83
2019-03-21T00:38:11.742Z,12.67
2019-03-21T00:38:51.182Z,12.17
2019-03-21T00:39:33.035Z,11.90
2019-03-21T00:40:14.470Z,12.40
2019-03-21T00:40:56.726Z,12.40
2019-03-21T00:41:38.850Z,12.63
2019-03-21T00:42:20.070Z,13.60
2019-03-21T00:42:59.854Z,12.25
2019-03-21T00:43:39.417Z,13.43
2019-03-21T00:44:20.453Z,12.53
2019-03-21T00:45:04.388Z,11.30
2019-03-21T00:45:45.577Z,17.77
2019-03-21T00:46:24.707Z,12.77
2019-03-21T00:47:04.171Z,12.13
2019-03-21T00:47:43.350Z,13.03
2019-03-21T00:48:23.785Z,12.13
2019-03-21T00:49:05.164Z,12.33
2019-03-21T00:49:44.329Z,12.57
2019-03-21T00:50:24.762Z,13.10
2019-03-21T00:51:04.268Z,17.10
2019-03-21T00:51:45.493Z,12.80
2019-03-21T00:52:24.848Z,11.97
2019-03-21T00:53:04.936Z,12.60
2019-03-21T00:53:44.562Z,12.13
2019-03-21T00:54:24.462Z,14.57
2019-03-21T00:55:05.039Z,11.93
2019-03-21T00:55:47.607Z,17.70
2019-03-21T00:56:27.542Z,30.50
2019-03-21T00:57:07.595Z,25.37
2019-03-21T00:57:48.743Z,34.95
2019-03-21T00:58:32.309Z,19.32
2019-03-21T00:59:16.148Z,23.77
2019-03-21T00:59:57.870Z,24.97
2019-03-21T01:00:43.210Z,30.20
2019-03-21T01:01:22.866Z,26.60
2019-03-21T01:02:02.589Z,23.00
2019-03-21T01:02:44.739Z,24.07
2019-03-21T01:03:24.894Z,20.92
2019-03-21T01:04:04.136Z,22.35
2019-03-21T01:04:47.249Z,20.03
2019-03-21T01:05:33.529Z,13.80
2019-03-21T01:06:22.805Z,21.62
2019-03-21T01:07:02.819Z,19.32
2019-03-21T01:07:43.995Z,17.57
2019-03-21T01:08:23.968Z,14.00
2019-03-21T01:09:05.632Z,16.77
2019-03-21T01:09:53.797Z,14.87
2019-03-21T01:10:35.276Z,24.70
2019-03-21T01:11:14.431Z,18.67
2019-03-21T01:12:01.806Z,13.43
2019-03-21T01:12:45.110Z,19.03
2019-03-21T01:13:27.383Z,15.40
2019-03-21T01:14:12.496Z,13.72
2019-03-21T01:14:52.919Z,14.70
2019-03-21T01:15:33.709Z,17.07
2019-03-21T01:16:14.258Z,14.00
2019-03-21T01:16:54.319Z,17.07
2019-03-21T01:17:37.088Z,16.80
2019-03-21T01:18:28.534Z,19.60
2019-03-21T01:19:13.836Z,15.90
2019-03-21T01:19:53.214Z,14.60
2019-03-21T01:20:32.835Z,22.87
2019-03-21T01:21:15.458Z,14.23
2019-03-21T01:21:57.750Z,15.18
2019-03-21T01:22:37.097Z,17.73
2019-03-21T01:23:20.678Z,16.20
2019-03-21T01:23:59.848Z,14.33
2019-03-21T01:24:38.939Z,16.17
2019-03-21T01:26:24.506Z,17.77
2019-03-21T01:27:06.450Z,15.05
2019-03-21T01:27:49.154Z,17.85
2019-03-21T01:28:29.305Z,18.12
2019-03-21T01:29:10.004Z,16.40
2019-03-21T01:29:49.062Z,16.90
2019-03-21T01:30:31.213Z,17.55
2019-03-21T01:31:09.993Z,18.20
2019-03-21T01:31:49.654Z,16.65
2019-03-21T01:32:30.566Z,17.65
2019-03-21T01:33:10.281Z,17.27
2019-03-21T01:33:52.106Z,20.75
2019-03-21T01:34:32.258Z,18.07
2019-03-21T01:35:11.953Z,19.95
2019-03-21T01:35:56.735Z,19.23
2019-03-21T01:36:38.772Z,17.00
2019-03-21T01:37:21.002Z,16.20
2019-03-21T01:38:00.256Z,16.40
2019-03-21T01:38:40.119Z,18.30
2019-03-21T01:39:19.349Z,17.07
2019-03-21T01:40:01.916Z,16.63
2019-03-21T01:40:41.320Z,16.13
2019-03-21T01:41:24.436Z,16.20
2019-03-21T01:42:06.585Z,17.25
2019-03-21T01:42:49.334Z,18.73
2019-03-21T01:43:32.601Z,16.27
2019-03-21T01:44:12.748Z,25.57
2019-03-21T01:44:52.510Z,18.63
2019-03-21T01:45:35.970Z,19.50
2019-03-21T01:46:22.611Z,19.02
2019-03-21T01:47:09.717Z,34.03
2019-03-21T01:47:49.583Z,17.00
2019-03-21T01:48:28.822Z,23.10
2019-03-21T01:49:11.461Z,24.85
2019-03-21T01:50:01.983Z,26.37
2019-03-21T01:50:54.478Z,15.87
2019-03-21T01:51:38.160Z,16.85
2019-03-21T01:52:18.485Z,22.58
2019-03-21T01:52:59.254Z,24.70
2019-03-21T01:53:38.647Z,19.02
2019-03-21T01:54:18.778Z,20.95
2019-03-21T01:54:58.139Z,21.83
2019-03-21T01:55:40.264Z,26.82
2019-03-21T01:56:20.891Z,26.17
2019-03-21T01:56:59.958Z,19.33
2019-03-21T01:57:43.842Z,20.48
2019-03-21T01:58:22.946Z,22.17
2019-03-21T01:59:08.494Z,24.65
2019-03-21T01:59:51.006Z,21.70
2019-03-21T02:00:34.625Z,21.17
2019-03-21T02:01:29.268Z,19.05
2019-03-21T02:02:08.657Z,18.45
2019-03-21T02:02:49.695Z,20.13
2019-03-21T02:03:29.578Z,20.50
2019-03-21T02:04:13.723Z,21.60
2019-03-21T02:04:54.540Z,19.60
2019-03-21T02:05:34.096Z,20.67
2019-03-21T02:06:16.137Z,18.17
2019-03-21T02:06:58.123Z,18.73
2019-03-21T02:07:37.568Z,17.50
2019-03-21T02:08:26.578Z,23.52
2019-03-21T02:09:09.877Z,18.90
2019-03-21T02:09:50.149Z,18.23
2019-03-21T02:10:30.729Z,18.45
2019-03-21T02:11:10.932Z,22.43
2019-03-21T02:11:56.656Z,20.35
2019-03-21T02:12:35.108Z,16.62
2019-03-21T02:13:27.110Z,18.45
2019-03-21T02:14:11.374Z,19.10
2019-03-21T02:15:04.868Z,17.60
2019-03-21T02:15:42.992Z,18.70
2019-03-21T02:16:23.696Z,17.32
2019-03-21T02:17:04.469Z,17.90
2019-03-21T02:17:46.017Z,21.95
2019-03-21T02:18:28.491Z,17.65
2019-03-21T02:19:11.561Z,16.97
2019-03-21T02:19:54.952Z,16.97
2019-03-21T02:20:44.871Z,17.53
2019-03-21T02:21:29.791Z,19.10
2019-03-21T02:22:14.856Z,16.57
2019-03-21T02:22:55.360Z,16.50
2019-03-21T02:23:35.198Z,17.40
2019-03-21T02:24:16.035Z,16.70
2019-03-21T02:24:58.403Z,17.90
2019-03-21T02:25:40.413Z,17.70
2019-03-21T02:26:19.606Z,16.87
2019-03-21T02:27:01.326Z,16.60
2019-03-21T02:27:40.810Z,17.80
2019-03-21T02:28:20.112Z,17.65
2019-03-21T02:29:02.585Z,17.85
2019-03-21T02:30:41.132Z,16.80
2019-03-21T02:31:28.703Z,17.77
2019-03-21T02:33:18.447Z,16.10
2019-03-21T02:33:58.212Z,15.20
2019-03-21T02:34:47.253Z,16.40
2019-03-21T02:35:30.796Z,16.03
2019-03-21T02:36:09.718Z,16.97
2019-03-21T02:36:51.040Z,17.35
2019-03-21T02:37:31.615Z,16.93
2019-03-21T02:38:14.481Z,16.70
2019-03-21T02:38:57.296Z,22.53
2019-03-21T02:39:59.836Z,16.73
2019-03-21T02:40:45.034Z,16.77
2019-03-21T02:41:25.970Z,15.53
2019-03-21T02:42:12.535Z,17.87
2019-03-21T02:42:54.465Z,15.43
2019-03-21T02:43:46.878Z,15.87
2019-03-21T02:44:28.084Z,15.07
2019-03-21T02:45:09.784Z,16.20
2019-03-21T02:45:51.274Z,15.20
2019-03-21T02:46:32.770Z,15.70
2019-03-21T02:47:25.906Z,15.30
2019-03-21T02:48:05.209Z,16.67
2019-03-21T02:48:46.958Z,14.70
2019-03-21T02:49:29.330Z,15.03
2019-03-21T02:51:15.327Z,15.67
2019-03-21T02:51:55.473Z,15.17
2019-03-21T02:52:39.173Z,14.67
2019-03-21T02:53:21.203Z,14.80
2019-03-21T02:54:02.133Z,15.50
2019-03-21T02:54:43.463Z,15.07
2019-03-21T02:55:23.676Z,15.93
2019-03-21T02:56:06.406Z,16.00
2019-03-21T02:56:46.937Z,14.03
2019-03-21T02:57:29.323Z,17.87
2019-03-21T02:58:09.516Z,16.50
2019-03-21T02:58:50.016Z,15.40
2019-03-21T02:59:33.041Z,15.80
2019-03-21T03:00:22.392Z,15.77
2019-03-21T03:01:03.926Z,15.03
2019-03-21T03:01:43.774Z,15.67
2019-03-21T03:02:25.874Z,18.83
2019-03-21T03:03:07.180Z,15.70
2019-03-21T03:03:47.642Z,13.97
2019-03-21T03:04:39.177Z,14.87
2019-03-21T03:05:32.356Z,15.00
2019-03-21T03:06:15.473Z,16.43
2019-03-21T03:06:55.918Z,14.50
2019-03-21T03:07:36.690Z,14.83
2019-03-21T03:08:16.795Z,14.40
2019-03-21T03:08:59.657Z,14.53
2019-03-21T03:09:41.281Z,13.83
2019-03-21T03:10:25.352Z,15.20
2019-03-21T03:11:10.649Z,15.23
2019-03-21T03:11:57.946Z,14.60
2019-03-21T03:12:48.113Z,14.97
2019-03-21T03:13:32.634Z,14.80
2019-03-21T03:14:12.156Z,16.03
2019-03-21T03:14:53.486Z,15.27
2019-03-21T03:15:35.330Z,15.17
2019-03-21T03:16:18.934Z,14.00
2019-03-21T03:16:58.901Z,14.67
2019-03-21T03:17:40.828Z,14.83
2019-03-21T03:18:28.459Z,14.10
2019-03-21T03:19:11.473Z,16.60
2019-03-21T03:20:00.645Z,14.40
2019-03-21T03:20:42.684Z,14.23
2019-03-21T03:21:29.325Z,14.40
2019-03-21T03:23:11.414Z,14.43
2019-03-21T03:23:55.503Z,16.87
2019-03-21T03:24:49.611Z,14.90
2019-03-21T03:25:29.209Z,14.87
2019-03-21T03:26:17.786Z,15.37
2019-03-21T03:26:59.436Z,14.90
2019-03-21T03:27:41.404Z,14.47
2019-03-21T03:28:32.008Z,15.43
2019-03-21T03:29:13.972Z,14.40
2019-03-21T03:29:54.628Z,14.83
2019-03-21T03:30:38.058Z,14.80
2019-03-21T03:31:19.148Z,15.80
2019-03-21T03:32:06.499Z,14.03
2019-03-21T03:32:50.326Z,15.20
2019-03-21T03:33:29.484Z,13.87
2019-03-21T03:34:10.910Z,15.37
2019-03-21T03:34:51.032Z,19.03
2019-03-21T03:35:34.431Z,14.37
2019-03-21T03:36:17.771Z,19.17
2019-03-21T03:36:58.710Z,16.90
2019-03-21T03:37:48.356Z,19.10
2019-03-21T03:38:42.058Z,14.97
2019-03-21T03:39:18.303Z,19.20
2019-03-21T03:39:58.694Z,14.10
2019-03-21T03:40:46.485Z,15.30
2019-03-21T03:41:31.171Z,14.17
2019-03-21T03:42:11.000Z,13.60
2019-03-21T03:42:59.024Z,14.90
2019-03-21T03:43:38.091Z,13.90
2019-03-21T03:44:31.560Z,18.62
2019-03-21T03:45:15.088Z,14.00
2019-03-21T03:46:53.510Z,15.03
2019-03-21T03:47:34.875Z,13.10
2019-03-21T03:48:19.629Z,14.57
2019-03-21T03:49:03.558Z,14.00
2019-03-21T03:49:46.906Z,15.00
2019-03-21T03:50:26.661Z,14.90
2019-03-21T03:51:09.562Z,14.40
2019-03-21T03:51:49.239Z,14.13
2019-03-21T03:52:35.482Z,14.20
2019-03-21T03:53:20.669Z,13.30
2019-03-21T03:53:59.883Z,13.23
2019-03-21T03:54:41.712Z,12.50
2019-03-21T03:55:26.034Z,13.23
2019-03-21T03:56:08.187Z,14.40
2019-03-21T03:56:47.916Z,13.40
2019-03-21T03:57:32.468Z,13.10
2019-03-21T03:58:15.286Z,13.47
2019-03-21T03:58:59.324Z,13.97
2019-03-21T03:59:42.517Z,13.77
2019-03-21T04:00:28.402Z,12.87
2019-03-21T04:01:12.481Z,15.20
2019-03-21T04:01:55.313Z,12.97
2019-03-21T04:02:37.411Z,12.23
2019-03-21T04:03:19.747Z,14.20
2019-03-21T04:04:03.892Z,12.50
2019-03-21T04:04:46.270Z,13.93
2019-03-21T04:05:30.604Z,12.60
2019-03-21T04:06:12.511Z,12.40
2019-03-21T04:06:54.035Z,12.53
2019-03-21T04:08:31.557Z,12.40
2019-03-21T04:10:18.719Z,13.00
2019-03-21T04:11:05.592Z,13.23
2019-03-21T04:11:45.969Z,11.90
2019-03-21T04:12:25.803Z,12.60
2019-03-21T04:13:07.387Z,12.20
2019-03-21T04:13:48.253Z,13.13
2019-03-21T04:14:28.409Z,12.37
2019-03-21T04:15:10.223Z,13.87
2019-03-21T04:15:53.247Z,13.17
2019-03-21T04:16:35.929Z,11.20
2019-03-21T04:17:15.115Z,12.87
2019-03-21T04:17:58.179Z,12.50
2019-03-21T04:18:36.922Z,12.40
2019-03-21T04:19:21.129Z,12.73
2019-03-21T04:20:02.375Z,12.30
2019-03-21T04:20:47.850Z,13.90
2019-03-21T04:21:30.633Z,12.90
2019-03-21T04:22:10.324Z,12.07
2019-03-21T04:22:52.327Z,12.33
2019-03-21T04:23:32.116Z,11.60
2019-03-21T04:24:11.348Z,11.73
2019-03-21T04:24:56.052Z,12.30
2019-03-21T04:25:49.547Z,11.63
2019-03-21T04:26:31.259Z,11.50
2019-03-21T04:27:15.748Z,13.30
2019-03-21T04:27:57.320Z,10.67
2019-03-21T04:28:41.113Z,11.70
2019-03-21T04:29:21.704Z,13.50
2019-03-21T04:30:01.727Z,12.57
2019-03-21T04:30:40.902Z,10.77
2019-03-21T04:31:22.265Z,11.47
2019-03-21T04:32:02.178Z,11.23
2019-03-21T04:32:42.954Z,11.57
2019-03-21T04:33:36.350Z,12.60
2019-03-21T04:34:23.910Z,12.13
2019-03-21T04:35:22.518Z,13.30
2019-03-21T04:36:07.320Z,13.53
2019-03-21T04:37:05.668Z,12.80
2019-03-21T04:37:46.615Z,13.60
2019-03-21T04:38:27.266Z,11.50
2019-03-21T04:39:16.969Z,11.87
2019-03-21T04:40:01.389Z,12.80
2019-03-21T04:40:52.088Z,11.50
2019-03-21T04:41:32.395Z,16.63
2019-03-21T04:42:15.445Z,12.73
2019-03-21T04:43:51.759Z,12.03
2019-03-21T04:44:32.131Z,11.23
2019-03-21T04:45:15.374Z,10.63
2019-03-21T04:46:02.846Z,11.80
2019-03-21T04:46:37.725Z,12.40
2019-03-21T04:47:27.730Z,11.37
2019-03-21T04:48:07.137Z,10.73
2019-03-21T04:48:50.385Z,11.97
2019-03-21T04:49:33.793Z,11.53
2019-03-21T04:50:15.070Z,10.90
2019-03-21T04:50:55.184Z,10.70
2019-03-21T04:51:41.817Z,10.97
2019-03-21T04:52:32.392Z,10.37
2019-03-21T04:53:14.031Z,10.90
2019-03-21T04:53:55.688Z,11.83
2019-03-21T04:54:36.105Z,11.37
2019-03-21T04:55:18.766Z,10.43
2019-03-21T04:55:58.933Z,10.47
2019-03-21T04:56:40.025Z,10.70
2019-03-21T04:57:23.146Z,10.50
2019-03-21T04:58:16.965Z,11.70
2019-03-21T04:58:54.918Z,10.60
2019-03-21T04:59:50.782Z,12.20
2019-03-21T05:00:35.011Z,14.70
2019-03-21T05:01:17.355Z,11.53
2019-03-21T05:02:05.037Z,10.90
2019-03-21T05:02:46.251Z,10.57
2019-03-21T05:03:27.673Z,9.90
2019-03-21T05:04:16.661Z,11.17
2019-03-21T05:04:56.275Z,9.10
2019-03-21T05:05:37.926Z,9.33
2019-03-21T05:06:19.055Z,10.03
2019-03-21T05:07:00.296Z,9.87
2019-03-21T05:07:39.439Z,12.03
2019-03-21T05:08:22.373Z,8.67
2019-03-21T05:09:07.894Z,9.33
2019-03-21T05:09:47.068Z,9.13
2019-03-21T05:10:28.774Z,8.90
2019-03-21T05:11:08.577Z,9.97
2019-03-21T05:11:49.595Z,9.40
2019-03-21T05:12:29.989Z,8.63
2019-03-21T05:13:18.641Z,8.33
2019-03-21T05:14:04.369Z,9.13
2019-03-21T05:14:46.715Z,9.20
2019-03-21T05:15:32.242Z,9.87
2019-03-21T05:16:17.511Z,8.53
2019-03-21T05:17:06.379Z,8.70
2019-03-21T05:17:46.011Z,11.33
2019-03-21T05:18:44.916Z,9.00
2019-03-21T05:19:29.080Z,9.03
2019-03-21T05:20:17.952Z,8.57
2019-03-21T05:20:53.499Z,8.90
2019-03-21T05:21:33.565Z,7.80
2019-03-21T05:22:20.227Z,8.10
2019-03-21T05:23:00.378Z,7.47
2019-03-21T05:23:49.187Z,7.67
2019-03-21T05:24:29.836Z,7.97
2019-03-21T05:25:10.107Z,7.90
2019-03-21T05:25:49.256Z,8.43
2019-03-21T05:26:28.416Z,8.23
2019-03-21T05:28:06.546Z,7.20
2019-03-21T05:28:54.761Z,9.60
2019-03-21T05:29:36.557Z,8.47
2019-03-21T05:30:20.683Z,7.93
2019-03-21T05:31:05.309Z,7.87
2019-03-21T05:31:45.125Z,8.30
2019-03-21T05:32:24.460Z,10.40
2019-03-21T05:33:04.860Z,7.13
2019-03-21T05:33:57.790Z,9.60
2019-03-21T05:34:38.797Z,7.27
2019-03-21T05:35:18.644Z,7.07
2019-03-21T05:36:02.773Z,8.63
2019-03-21T05:36:53.439Z,7.53
2019-03-21T05:37:34.963Z,7.83
2019-03-21T05:38:15.595Z,7.30
2019-03-21T05:38:59.014Z,6.93
2019-03-21T05:40:40.663Z,7.50
2019-03-21T05:41:19.618Z,6.90
2019-03-21T05:41:59.736Z,7.20
2019-03-21T05:42:43.295Z,7.00
2019-03-21T05:43:32.336Z,7.47
2019-03-21T05:44:32.095Z,7.87
2019-03-21T05:45:14.789Z,8.83
2019-03-21T05:45:58.771Z,6.80
2019-03-21T05:46:38.164Z,6.60
2019-03-21T05:47:17.787Z,7.87
2019-03-21T05:47:57.460Z,7.10
2019-03-21T05:48:38.617Z,6.60
2019-03-21T05:49:18.287Z,6.57
2019-03-21T05:50:03.933Z,6.43
2019-03-21T05:50:45.550Z,6.60
2019-03-21T05:51:30.446Z,6.80
2019-03-21T05:52:15.257Z,6.33
2019-03-21T05:52:55.448Z,7.27
2019-03-21T05:53:37.517Z,8.60
2019-03-21T05:54:17.211Z,6.67
2019-03-21T05:54:58.857Z,5.53
2019-03-21T05:55:38.000Z,6.50
2019-03-21T05:56:21.894Z,6.57
2019-03-21T05:57:03.213Z,6.07
2019-03-21T05:57:42.477Z,7.60
2019-03-21T05:58:32.275Z,5.37
2019-03-21T05:59:15.411Z,7.63
2019-03-21T05:59:57.194Z,6.53
2019-03-21T06:00:40.134Z,6.20
2019-03-21T06:01:21.893Z,6.53
2019-03-21T06:02:05.803Z,6.03
2019-03-21T06:02:49.421Z,5.97
2019-03-21T06:03:37.331Z,6.03
2019-03-21T06:04:17.935Z,5.70
2019-03-21T06:04:58.511Z,5.87
2019-03-21T06:05:39.030Z,6.73
2019-03-21T06:06:25.515Z,5.93
2019-03-21T06:07:17.415Z,6.17
2019-03-21T06:08:17.336Z,6.07
2019-03-21T06:08:57.946Z,5.67
2019-03-21T06:09:39.551Z,6.00
2019-03-21T06:10:27.108Z,6.30
2019-03-21T06:11:09.030Z,7.07
2019-03-21T06:11:53.011Z,6.30
2019-03-21T06:12:34.358Z,5.77
2019-03-21T06:13:15.702Z,5.53
2019-03-21T06:13:55.311Z,6.90
2019-03-21T06:14:36.144Z,5.33
2019-03-21T06:15:23.882Z,5.77
2019-03-21T06:16:10.457Z,8.37
2019-03-21T06:16:51.130Z,5.60
2019-03-21T06:17:31.778Z,5.00
2019-03-21T06:18:38.838Z,5.93
2019-03-21T06:19:28.099Z,4.97
2019-03-21T06:20:35.530Z,5.37
2019-03-21T06:21:27.904Z,5.73
2019-03-21T06:22:45.671Z,5.60
2019-03-21T06:23:48.244Z,5.07
2019-03-21T06:24:47.616Z,5.30
2019-03-21T06:25:59.611Z,6.47
2019-03-21T06:26:50.280Z,5.10
2019-03-21T06:27:37.974Z,5.60
2019-03-21T06:28:22.670Z,5.30
2019-03-21T06:29:06.285Z,5.07
2019-03-21T06:29:47.909Z,4.70
2019-03-21T06:30:28.816Z,5.13
2019-03-21T06:31:10.670Z,8.90
2019-03-21T06:32:49.450Z,5.00
2019-03-21T06:33:35.234Z,5.47
2019-03-21T06:34:15.398Z,5.57
2019-03-21T06:35:01.005Z,7.20
2019-03-21T06:35:42.946Z,5.17
2019-03-21T06:37:22.610Z,5.67
2019-03-21T06:38:04.546Z,5.77
2019-03-21T06:38:44.730Z,5.10
2019-03-21T06:39:27.441Z,5.90
2019-03-21T06:40:08.936Z,5.17
2019-03-21T06:40:49.234Z,6.07
2019-03-21T06:41:31.727Z,5.10
2019-03-21T06:42:12.271Z,4.87
2019-03-21T06:43:01.154Z,6.70
2019-03-21T06:43:41.142Z,5.33
2019-03-21T06:44:20.395Z,5.90
2019-03-21T06:45:03.386Z,4.67
2019-03-21T06:45:47.957Z,4.63
2019-03-21T06:46:23.605Z,6.30
2019-03-21T06:47:03.838Z,5.10
2019-03-21T06:47:43.711Z,5.53
2019-03-21T06:48:29.727Z,5.00
2019-03-21T06:49:12.142Z,4.50
2019-03-21T06:49:54.071Z,5.13
2019-03-21T06:50:33.139Z,5.40
2019-03-21T06:51:13.330Z,5.83
2019-03-21T06:51:52.323Z,7.20
2019-03-21T06:52:35.293Z,7.47
2019-03-21T06:54:12.459Z,5.57
2019-03-21T06:54:54.179Z,4.90
2019-03-21T06:55:35.876Z,6.23
2019-03-21T06:56:21.646Z,5.10
2019-03-21T06:57:02.603Z,4.97
2019-03-21T06:57:43.859Z,5.30
2019-03-21T06:58:22.596Z,5.53
2019-03-21T06:59:03.056Z,7.27
2019-03-21T06:59:45.757Z,5.17
2019-03-21T07:00:27.347Z,5.87
2019-03-21T07:01:06.907Z,4.60
2019-03-21T07:01:48.912Z,6.80
2019-03-21T07:02:29.731Z,5.67
2019-03-21T07:03:09.143Z,5.13
2019-03-21T07:03:49.054Z,4.73
2019-03-21T07:04:29.763Z,5.57
2019-03-21T07:05:19.091Z,6.40
2019-03-21T07:05:59.161Z,5.27
2019-03-21T07:06:43.057Z,5.30
2019-03-21T07:07:22.308Z,6.43
2019-03-21T07:08:19.185Z,5.37
2019-03-21T07:08:45.340Z,5.00
2019-03-21T07:09:24.384Z,5.43
2019-03-21T07:10:05.284Z,6.40
2019-03-21T07:10:46.974Z,5.10
2019-03-21T07:12:29.536Z,5.40
2019-03-21T07:13:10.126Z,5.87
2019-03-21T07:13:52.299Z,7.20
2019-03-21T07:14:33.989Z,5.43
2019-03-21T07:15:15.995Z,5.40
2019-03-21T07:15:58.467Z,5.30
2019-03-21T07:16:39.613Z,6.93
2019-03-21T07:17:19.232Z,5.33
2019-03-21T07:18:02.037Z,5.17
2019-03-21T07:18:41.172Z,5.13
2019-03-21T07:19:20.203Z,5.07
2019-03-21T07:20:00.358Z,7.97
2019-03-21T07:20:41.865Z,6.83
2019-03-21T07:21:22.046Z,7.33
2019-03-21T07:22:03.860Z,5.70
2019-03-21T07:22:44.766Z,6.47
2019-03-21T07:23:26.122Z,5.20
2019-03-21T07:24:05.344Z,6.53
2019-03-21T07:24:46.042Z,5.23
2019-03-21T07:25:28.566Z,6.93
2019-03-21T07:26:18.601Z,8.93
2019-03-21T07:26:58.235Z,9.13
2019-03-21T07:27:37.902Z,5.27
2019-03-21T07:28:19.853Z,5.60
2019-03-21T07:29:16.993Z,5.63
2019-03-21T07:29:58.285Z,5.27
2019-03-21T07:30:38.065Z,5.97
2019-03-21T07:31:21.526Z,6.57
2019-03-21T07:32:00.448Z,6.00
2019-03-21T07:32:46.846Z,6.43
2019-03-21T07:33:29.946Z,5.80
2019-03-21T07:35:10.403Z,5.13
2019-03-21T07:35:50.069Z,4.53
2019-03-21T07:36:31.983Z,5.57
2019-03-21T07:37:11.897Z,6.70
2019-03-21T07:37:52.207Z,7.73
2019-03-21T07:38:32.458Z,5.90
2019-03-21T07:39:14.411Z,5.60
2019-03-21T07:39:56.379Z,6.40
2019-03-21T07:41:36.725Z,6.30
2019-03-21T07:42:16.452Z,5.83
2019-03-21T07:43:01.512Z,5.93
2019-03-21T07:43:44.130Z,6.13
2019-03-21T07:44:24.066Z,5.43
2019-03-21T07:45:13.847Z,6.70
2019-03-21T07:45:55.714Z,6.50
2019-03-21T07:46:34.795Z,5.27
2019-03-21T07:47:18.189Z,6.43
2019-03-21T07:48:00.413Z,5.77
2019-03-21T07:48:40.744Z,6.57
2019-03-21T07:49:20.439Z,5.63
2019-03-21T07:50:02.729Z,6.30
2019-03-21T07:50:41.536Z,4.93
2019-03-21T07:51:20.717Z,8.70
2019-03-21T07:52:02.366Z,5.67
2019-03-21T07:52:43.306Z,5.33
2019-03-21T07:53:24.474Z,6.13
2019-03-21T07:54:05.458Z,5.67
2019-03-21T07:54:45.359Z,6.33
2019-03-21T07:55:24.686Z,6.33
2019-03-21T07:56:05.716Z,5.57
2019-03-21T07:56:44.998Z,8.07
2019-03-21T07:57:26.708Z,6.03
2019-03-21T07:58:08.300Z,6.17
2019-03-21T07:58:46.972Z,6.00
2019-03-21T07:59:29.636Z,5.60
2019-03-21T08:00:09.788Z,6.90
2019-03-21T08:00:53.248Z,6.63
2019-03-21T08:01:35.836Z,5.70
2019-03-21T08:02:16.332Z,5.70
2019-03-21T08:02:58.451Z,6.00
2019-03-21T08:03:40.980Z,6.50
2019-03-21T08:04:21.156Z,5.60
2019-03-21T08:05:03.294Z,6.03
2019-03-21T08:05:45.043Z,5.60
2019-03-21T08:06:26.561Z,5.43
2019-03-21T08:07:06.141Z,6.43
2019-03-21T08:07:46.524Z,5.80
2019-03-21T08:08:27.246Z,6.23
2019-03-21T08:09:09.673Z,6.97
2019-03-21T08:09:51.785Z,6.20
2019-03-21T08:10:49.224Z,8.60
2019-03-21T08:11:29.108Z,5.73
2019-03-21T08:12:10.907Z,5.80
2019-03-21T08:12:52.536Z,6.40
2019-03-21T08:13:44.141Z,5.90
2019-03-21T08:14:24.225Z,5.93
2019-03-21T08:15:05.885Z,5.57
2019-03-21T08:15:45.458Z,7.27
2019-03-21T08:16:25.310Z,5.90
2019-03-21T08:17:13.225Z,6.17
2019-03-21T08:17:56.541Z,6.30
2019-03-21T08:18:39.664Z,5.70
2019-03-21T08:19:20.614Z,5.40
2019-03-21T08:19:59.255Z,5.70
2019-03-21T08:20:41.403Z,6.30
2019-03-21T08:21:21.099Z,5.43
2019-03-21T08:22:00.143Z,5.67
2019-03-21T08:22:41.983Z,5.73
2019-03-21T08:23:22.125Z,6.20
2019-03-21T08:24:04.247Z,7.30
2019-03-21T08:24:43.747Z,7.10
2019-03-21T08:25:26.648Z,5.90
2019-03-21T08:26:08.497Z,6.70
2019-03-21T08:26:50.270Z,7.00
2019-03-21T08:27:30.387Z,5.90
2019-03-21T08:28:13.906Z,9.00
2019-03-21T08:28:54.108Z,5.60
2019-03-21T08:29:42.023Z,5.80
2019-03-21T08:30:55.702Z,5.30
2019-03-21T08:31:36.242Z,6.57
2019-03-21T08:32:19.506Z,5.95
2019-03-21T08:33:04.284Z,6.40
2019-03-21T08:33:43.612Z,5.83
2019-03-21T08:34:23.635Z,6.27
2019-03-21T08:35:17.336Z,5.37
2019-03-21T08:35:57.808Z,6.03
2019-03-21T08:36:37.306Z,6.10
2019-03-21T08:37:19.652Z,6.30
2019-03-21T08:37:58.762Z,5.77
2019-03-21T08:38:38.091Z,7.37
2019-03-21T08:39:17.555Z,5.97
2019-03-21T08:39:58.229Z,5.30
2019-03-21T08:40:42.737Z,6.40
2019-03-21T08:41:24.290Z,6.00
2019-03-21T08:42:03.525Z,6.07
2019-03-21T08:42:44.180Z,5.87
2019-03-21T08:43:26.403Z,6.83
2019-03-21T08:44:06.104Z,6.00
2019-03-21T08:44:45.971Z,6.27
2019-03-21T08:45:28.166Z,6.00
2019-03-21T08:46:08.091Z,5.73
2019-03-21T08:46:50.001Z,5.83
2019-03-21T08:47:30.524Z,6.30
2019-03-21T08:48:12.268Z,5.73
2019-03-21T08:49:02.690Z,6.50
2019-03-21T08:49:45.314Z,8.47
2019-03-21T08:50:29.112Z,6.10
2019-03-21T08:51:08.909Z,5.97
2019-03-21T08:51:51.965Z,5.40
2019-03-21T08:52:31.978Z,5.90
2019-03-21T08:53:11.520Z,5.30
2019-03-21T08:53:54.724Z,5.37
2019-03-21T08:54:35.089Z,4.80
2019-03-21T08:55:16.722Z,7.40
2019-03-21T08:55:55.997Z,6.43
2019-03-21T08:56:35.477Z,6.90
2019-03-21T08:57:16.444Z,6.43
2019-03-21T08:57:56.278Z,5.87
2019-03-21T08:58:36.555Z,6.30
2019-03-21T08:59:16.307Z,5.70
2019-03-21T08:59:56.691Z,5.87
2019-03-21T09:00:36.619Z,6.03
2019-03-21T09:01:20.284Z,6.30
2019-03-21T09:02:02.465Z,5.70
2019-03-21T09:02:41.580Z,6.00
2019-03-21T09:03:20.740Z,5.67
2019-03-21T09:04:04.307Z,7.97
2019-03-21T09:04:47.330Z,5.27
2019-03-21T09:05:27.192Z,6.53
2019-03-21T09:06:07.419Z,5.43
2019-03-21T09:06:46.500Z,6.03
2019-03-21T09:07:28.549Z,6.93
2019-03-21T09:08:07.706Z,6.73
2019-03-21T09:08:48.390Z,7.07
2019-03-21T09:09:27.694Z,7.80
2019-03-21T09:10:07.979Z,5.80
2019-03-21T09:10:48.111Z,5.70
2019-03-21T09:11:27.600Z,6.50
2019-03-21T09:12:07.442Z,5.40
2019-03-21T09:12:48.142Z,5.60
2019-03-21T09:13:29.167Z,5.50
2019-03-21T09:14:09.026Z,6.30
2019-03-21T09:14:48.425Z,6.80
2019-03-21T09:15:28.758Z,5.73
2019-03-21T09:16:10.815Z,5.80
2019-03-21T09:16:49.558Z,6.37
2019-03-21T09:17:29.317Z,5.93
2019-03-21T09:18:08.832Z,7.00
2019-03-21T09:18:56.742Z,9.80
2019-03-21T09:19:36.384Z,6.47
2019-03-21T09:20:18.685Z,6.53
2019-03-21T09:20:57.497Z,6.30
2019-03-21T09:21:38.811Z,5.47
2019-03-21T09:22:19.888Z,5.67
2019-03-21T09:22:59.635Z,9.03
2019-03-21T09:23:39.034Z,8.30
2019-03-21T09:24:18.081Z,5.37
2019-03-21T09:24:58.546Z,5.63
2019-03-21T09:25:38.062Z,5.80
2019-03-21T09:26:18.409Z,7.40
2019-03-21T09:26:58.074Z,5.37
2019-03-21T09:27:38.220Z,5.87
2019-03-21T09:28:17.924Z,8.70
2019-03-21T09:28:58.162Z,6.50
2019-03-21T09:29:37.721Z,6.87
2019-03-21T09:30:17.592Z,6.23
2019-03-21T09:30:56.869Z,5.50
2019-03-21T09:31:37.290Z,5.90
2019-03-21T09:32:18.104Z,6.05
2019-03-21T09:32:58.502Z,7.13
2019-03-21T09:33:39.997Z,6.23